sensor_id;sensor_type;location;lat;lon;timestamp;pressure;altitude;pressure_sealevel;temperature;humidity
3250;BME280;1637;42.020;23.992;2023-05-23T00:01:36;92670.75;;;12.20;100.00
3250;BME280;1637;42.020;23.992;2023-05-23T00:04:04;92671.22;;;12.15;100.00
3250;BME280;1637;42.020;23.992;2023-05-23T00:06:31;92661.00;;;11.87;100.00
3250;BME280;1637;42.020;23.992;2023-05-23T00:08:58;92674.88;;;12.05;100.00
3250;BME280;1637;42.020;23.992;2023-05-23T00:11:26;92676.53;;;11.99;100.00
3250;BME280;1637;42.020;23.992;2023-05-23T00:13:53;92661.31;;;11.69;100.00
3250;BME280;1637;42.020;23.992;2023-05-23T00:16:21;92664.28;;;11.98;100.00
3250;BME280;1637;42.020;23.992;2023-05-23T00:18:48;92668.97;;;12.14;100.00
3250;BME280;1637;42.020;23.992;2023-05-23T00:21:16;92667.91;;;12.08;100.00
3250;BME280;1637;42.020;23.992;2023-05-23T00:23:42;92673.97;;;12.12;100.00
3250;BME280;1637;42.020;23.992;2023-05-23T00:26:09;92670.38;;;11.79;100.00
3250;BME280;1637;42.020;23.992;2023-05-23T00:28:37;92671.97;;;11.76;100.00
3250;BME280;1637;42.020;23.992;2023-05-23T00:31:04;92678.81;;;11.54;100.00
3250;BME280;1637;42.020;23.992;2023-05-23T00:33:31;92677.00;;;11.24;100.00
3250;BME280;1637;42.020;23.992;2023-05-23T00:35:58;92677.00;;;11.24;100.00
3250;BME280;1637;42.020;23.992;2023-05-23T00:38:25;92679.88;;;11.36;100.00
3250;BME280;1637;42.020;23.992;2023-05-23T00:40:52;92681.09;;;11.32;100.00
3250;BME280;1637;42.020;23.992;2023-05-23T00:43:19;92688.03;;;11.29;100.00
3250;BME280;1637;42.020;23.992;2023-05-23T00:45:48;92681.66;;;11.43;100.00
3250;BME280;1637;42.020;23.992;2023-05-23T00:48:15;92690.47;;;11.44;100.00
3250;BME280;1637;42.020;23.992;2023-05-23T00:50:42;92685.13;;;11.20;100.00
3250;BME280;1637;42.020;23.992;2023-05-23T00:53:11;92684.88;;;11.11;100.00
3250;BME280;1637;42.020;23.992;2023-05-23T00:55:38;92680.03;;;11.26;100.00
3250;BME280;1637;42.020;23.992;2023-05-23T00:58:05;92687.94;;;11.36;100.00
3250;BME280;1637;42.020;23.992;2023-05-23T01:00:32;92688.09;;;11.49;100.00
3250;BME280;1637;42.020;23.992;2023-05-23T01:03:01;92685.53;;;11.42;100.00
3250;BME280;1637;42.020;23.992;2023-05-23T01:05:29;92680.75;;;11.53;100.00
3250;BME280;1637;42.020;23.992;2023-05-23T01:07:56;92679.97;;;11.29;100.00
3250;BME280;1637;42.020;23.992;2023-05-23T01:10:25;92665.41;;;11.07;100.00
3250;BME280;1637;42.020;23.992;2023-05-23T01:13:03;92680.56;;;11.17;100.00
3250;BME280;1637;42.020;23.992;2023-05-23T01:15:37;92673.31;;;11.41;100.00
3250;BME280;1637;42.020;23.992;2023-05-23T01:18:09;92677.25;;;11.33;100.00
3250;BME280;1637;42.020;23.992;2023-05-23T01:20:43;92673.69;;;11.16;100.00
3250;BME280;1637;42.020;23.992;2023-05-23T01:26:31;92679.16;;;11.09;100.00
3250;BME280;1637;42.020;23.992;2023-05-23T01:29:03;92652.03;;;10.80;100.00
3250;BME280;1637;42.020;23.992;2023-05-23T01:31:35;92643.78;;;10.94;100.00
3250;BME280;1637;42.020;23.992;2023-05-23T01:34:03;92668.03;;;11.11;100.00
3250;BME280;1637;42.020;23.992;2023-05-23T01:36:32;92667.03;;;11.01;100.00
3250;BME280;1637;42.020;23.992;2023-05-23T01:39:00;92664.19;;;11.12;100.00
3250;BME280;1637;42.020;23.992;2023-05-23T01:41:26;92663.25;;;10.98;100.00
3250;BME280;1637;42.020;23.992;2023-05-23T01:43:53;92654.44;;;10.98;100.00
3250;BME280;1637;42.020;23.992;2023-05-23T01:46:22;92660.88;;;10.77;100.00
3250;BME280;1637;42.020;23.992;2023-05-23T01:48:49;92656.06;;;10.65;100.00
3250;BME280;1637;42.020;23.992;2023-05-23T01:51:16;92642.50;;;10.49;100.00
3250;BME280;1637;42.020;23.992;2023-05-23T01:53:43;92648.56;;;10.22;100.00
3250;BME280;1637;42.020;23.992;2023-05-23T01:56:10;92646.94;;;10.32;100.00
3250;BME280;1637;42.020;23.992;2023-05-23T01:58:38;92643.50;;;10.31;100.00
3250;BME280;1637;42.020;23.992;2023-05-23T02:01:05;92640.06;;;10.31;100.00
3250;BME280;1637;42.020;23.992;2023-05-23T02:03:33;92641.00;;;10.48;100.00
3250;BME280;1637;42.020;23.992;2023-05-23T02:06:00;92645.22;;;10.45;100.00
3250;BME280;1637;42.020;23.992;2023-05-23T02:08:27;92652.06;;;10.50;100.00
3250;BME280;1637;42.020;23.992;2023-05-23T02:10:54;92646.34;;;10.48;100.00
3250;BME280;1637;42.020;23.992;2023-05-23T02:13:21;92654.50;;;10.67;100.00
3250;BME280;1637;42.020;23.992;2023-05-23T02:15:47;92652.53;;;10.72;100.00
3250;BME280;1637;42.020;23.992;2023-05-23T02:18:14;92651.41;;;10.69;100.00
3250;BME280;1637;42.020;23.992;2023-05-23T02:20:43;92649.91;;;10.68;100.00
3250;BME280;1637;42.020;23.992;2023-05-23T02:23:10;92642.91;;;10.47;100.00
3250;BME280;1637;42.020;23.992;2023-05-23T02:25:37;92637.19;;;10.45;100.00
3250;BME280;1637;42.020;23.992;2023-05-23T02:28:04;92643.47;;;10.35;100.00
3250;BME280;1637;42.020;23.992;2023-05-23T02:30:30;92646.94;;;10.32;100.00
3250;BME280;1637;42.020;23.992;2023-05-23T02:32:57;92644.78;;;10.20;100.00
3250;BME280;1637;42.020;23.992;2023-05-23T02:35:24;92654.53;;;10.03;100.00
3250;BME280;1637;42.020;23.992;2023-05-23T02:37:52;92636.84;;;10.13;100.00
3250;BME280;1637;42.020;23.992;2023-05-23T02:40:19;92627.50;;;9.94;100.00
3250;BME280;1637;42.020;23.992;2023-05-23T02:42:46;92636.75;;;10.20;100.00
3250;BME280;1637;42.020;23.992;2023-05-23T02:45:12;92639.28;;;10.34;100.00
3250;BME280;1637;42.020;23.992;2023-05-23T02:47:39;92638.19;;;10.28;100.00
3250;BME280;1637;42.020;23.992;2023-05-23T02:50:07;92635.81;;;9.99;100.00
3250;BME280;1637;42.020;23.992;2023-05-23T02:52:33;92642.34;;;9.98;100.00
3250;BME280;1637;42.020;23.992;2023-05-23T02:55:02;92638.97;;;9.94;100.00
3250;BME280;1637;42.020;23.992;2023-05-23T02:57:29;92654.31;;;9.87;100.00
3250;BME280;1637;42.020;23.992;2023-05-23T02:59:56;92655.13;;;9.84;100.00
3250;BME280;1637;42.020;23.992;2023-05-23T03:02:22;92654.78;;;9.78;100.00
3250;BME280;1637;42.020;23.992;2023-05-23T03:04:49;92511.41;;;8.41;100.00
3250;BME280;1637;42.020;23.992;2023-05-23T03:07:16;92644.22;;;9.68;100.00
3250;BME280;1637;42.020;23.992;2023-05-23T03:09:43;92650.59;;;9.77;100.00
3250;BME280;1637;42.020;23.992;2023-05-23T03:12:11;92642.78;;;9.93;100.00
3250;BME280;1637;42.020;23.992;2023-05-23T03:14:38;92649.97;;;10.00;100.00
3250;BME280;1637;42.020;23.992;2023-05-23T03:17:04;92635.88;;;9.96;100.00
3250;BME280;1637;42.020;23.992;2023-05-23T03:19:31;92648.00;;;10.04;100.00
3250;BME280;1637;42.020;23.992;2023-05-23T03:21:58;92654.66;;;10.26;100.00
3250;BME280;1637;42.020;23.992;2023-05-23T03:24:24;92651.13;;;10.33;100.00
3250;BME280;1637;42.020;23.992;2023-05-23T03:26:51;92654.91;;;10.39;100.00
3250;BME280;1637;42.020;23.992;2023-05-23T03:29:19;92654.25;;;10.28;100.00
3250;BME280;1637;42.020;23.992;2023-05-23T03:31:46;92635.41;;;10.39;100.00
3250;BME280;1637;42.020;23.992;2023-05-23T03:34:13;92662.41;;;11.01;100.00
3250;BME280;1637;42.020;23.992;2023-05-23T03:36:40;92649.72;;;11.52;100.00
3250;BME280;1637;42.020;23.992;2023-05-23T03:39:07;92669.72;;;12.14;100.00
3250;BME280;1637;42.020;23.992;2023-05-23T03:41:34;92666.41;;;12.46;98.76
3250;BME280;1637;42.020;23.992;2023-05-23T03:44:00;92671.53;;;12.57;96.25
3250;BME280;1637;42.020;23.992;2023-05-23T03:46:29;92649.75;;;12.71;95.19
3250;BME280;1637;42.020;23.992;2023-05-23T03:48:56;92675.22;;;13.19;91.77
3250;BME280;1637;42.020;23.992;2023-05-23T03:51:22;92671.84;;;13.31;90.04
3250;BME280;1637;42.020;23.992;2023-05-23T03:53:49;92672.81;;;12.68;90.80
3250;BME280;1637;42.020;23.992;2023-05-23T03:56:16;92666.59;;;12.55;93.87
3250;BME280;1637;42.020;23.992;2023-05-23T03:58:43;92679.81;;;11.87;93.35
3250;BME280;1637;42.020;23.992;2023-05-23T04:01:10;92670.34;;;12.02;97.21
3250;BME280;1637;42.020;23.992;2023-05-23T04:03:39;92667.00;;;12.90;89.66
3250;BME280;1637;42.020;23.992;2023-05-23T04:06:06;92668.38;;;13.14;89.89
3250;BME280;1637;42.020;23.992;2023-05-23T04:08:33;92676.84;;;13.77;86.65
3250;BME280;1637;42.020;23.992;2023-05-23T04:11:00;92667.72;;;13.59;85.63
3250;BME280;1637;42.020;23.992;2023-05-23T04:13:27;92673.34;;;13.32;87.74
3250;BME280;1637;42.020;23.992;2023-05-23T04:15:55;92648.91;;;14.17;80.97
3250;BME280;1637;42.020;23.992;2023-05-23T04:18:22;92685.94;;;14.70;79.09
3250;BME280;1637;42.020;23.992;2023-05-23T04:20:50;92676.69;;;14.84;77.76
3250;BME280;1637;42.020;23.992;2023-05-23T04:23:17;92679.19;;;15.29;73.85
3250;BME280;1637;42.020;23.992;2023-05-23T04:25:43;92676.56;;;15.00;75.21
3250;BME280;1637;42.020;23.992;2023-05-23T04:28:10;92686.94;;;15.65;73.28
3250;BME280;1637;42.020;23.992;2023-05-23T04:30:38;92682.78;;;16.42;78.41
3250;BME280;1637;42.020;23.992;2023-05-23T04:33:05;92690.00;;;16.24;79.04
3250;BME280;1637;42.020;23.992;2023-05-23T04:35:32;92688.50;;;16.88;77.39
3250;BME280;1637;42.020;23.992;2023-05-23T04:38:04;92682.91;;;17.44;70.41
3250;BME280;1637;42.020;23.992;2023-05-23T04:40:31;92689.13;;;17.63;68.11
3250;BME280;1637;42.020;23.992;2023-05-23T04:42:58;92690.31;;;17.62;64.74
3250;BME280;1637;42.020;23.992;2023-05-23T04:45:24;92700.78;;;17.82;64.34
3250;BME280;1637;42.020;23.992;2023-05-23T04:47:51;92716.34;;;17.20;69.20
3250;BME280;1637;42.020;23.992;2023-05-23T04:50:20;92691.50;;;16.81;72.26
3250;BME280;1637;42.020;23.992;2023-05-23T04:52:47;92698.06;;;17.02;72.16
3250;BME280;1637;42.020;23.992;2023-05-23T04:55:15;92693.78;;;16.92;72.53
3250;BME280;1637;42.020;23.992;2023-05-23T04:57:42;92689.09;;;16.39;74.30
3250;BME280;1637;42.020;23.992;2023-05-23T05:00:11;92708.84;;;16.71;73.85
3250;BME280;1637;42.020;23.992;2023-05-23T05:02:39;92696.56;;;17.01;73.39
3250;BME280;1637;42.020;23.992;2023-05-23T05:05:07;92696.13;;;17.42;69.92
3250;BME280;1637;42.020;23.992;2023-05-23T05:07:34;92691.22;;;17.59;68.07
3250;BME280;1637;42.020;23.992;2023-05-23T05:10:01;92693.88;;;17.50;68.60
3250;BME280;1637;42.020;23.992;2023-05-23T05:12:30;92692.59;;;17.24;70.80
3250;BME280;1637;42.020;23.992;2023-05-23T05:14:56;92699.94;;;18.58;64.66
3250;BME280;1637;42.020;23.992;2023-05-23T05:17:23;92702.03;;;19.42;62.08
3250;BME280;1637;42.020;23.992;2023-05-23T05:19:50;92700.81;;;19.43;62.09
3250;BME280;1637;42.020;23.992;2023-05-23T05:22:17;92699.38;;;19.14;62.63
3250;BME280;1637;42.020;23.992;2023-05-23T05:24:43;92706.41;;;18.79;63.57
3250;BME280;1637;42.020;23.992;2023-05-23T05:27:10;92701.13;;;18.75;64.47
3250;BME280;1637;42.020;23.992;2023-05-23T05:29:38;92706.13;;;18.22;66.21
3250;BME280;1637;42.020;23.992;2023-05-23T05:32:05;92699.44;;;17.87;68.00
3250;BME280;1637;42.020;23.992;2023-05-23T05:34:33;92703.06;;;17.43;69.84
3250;BME280;1637;42.020;23.992;2023-05-23T05:37:02;92697.97;;;17.55;69.28
3250;BME280;1637;42.020;23.992;2023-05-23T05:39:29;92704.47;;;18.25;67.65
3250;BME280;1637;42.020;23.992;2023-05-23T05:41:55;92706.72;;;18.44;65.87
3250;BME280;1637;42.020;23.992;2023-05-23T05:44:22;92708.06;;;18.76;65.46
3250;BME280;1637;42.020;23.992;2023-05-23T05:46:50;92704.47;;;18.70;66.42
3250;BME280;1637;42.020;23.992;2023-05-23T05:49:17;92720.44;;;18.77;65.63
3250;BME280;1637;42.020;23.992;2023-05-23T05:51:44;92706.41;;;18.79;66.54
3250;BME280;1637;42.020;23.992;2023-05-23T05:54:10;92713.22;;;19.35;65.75
3250;BME280;1637;42.020;23.992;2023-05-23T05:56:37;92723.16;;;20.13;61.97
3250;BME280;1637;42.020;23.992;2023-05-23T05:59:04;92729.59;;;21.16;58.67
3250;BME280;1637;42.020;23.992;2023-05-23T06:01:30;92713.53;;;21.33;58.61
3250;BME280;1637;42.020;23.992;2023-05-23T06:04:00;92715.59;;;20.94;59.83
3250;BME280;1637;42.020;23.992;2023-05-23T06:06:27;92720.09;;;22.06;55.59
3250;BME280;1637;42.020;23.992;2023-05-23T06:08:54;92712.97;;;21.93;56.60
3250;BME280;1637;42.020;23.992;2023-05-23T06:11:20;92707.03;;;21.95;55.88
3250;BME280;1637;42.020;23.992;2023-05-23T06:13:47;92698.41;;;21.47;58.53
3250;BME280;1637;42.020;23.992;2023-05-23T06:16:14;92696.94;;;21.66;58.05
3250;BME280;1637;42.020;23.992;2023-05-23T06:18:40;92692.09;;;21.90;57.02
3250;BME280;1637;42.020;23.992;2023-05-23T06:21:09;92693.88;;;20.08;59.85
3250;BME280;1637;42.020;23.992;2023-05-23T06:23:36;92693.91;;;20.46;59.79
3250;BME280;1637;42.020;23.992;2023-05-23T06:26:02;92691.09;;;21.38;57.96
3250;BME280;1637;42.020;23.992;2023-05-23T06:28:32;92678.81;;;21.63;57.92
3250;BME280;1637;42.020;23.992;2023-05-23T06:30:59;92681.47;;;21.92;57.04
3250;BME280;1637;42.020;23.992;2023-05-23T06:33:27;92685.03;;;22.59;54.95
3250;BME280;1637;42.020;23.992;2023-05-23T06:35:53;92682.94;;;22.28;56.10
3250;BME280;1637;42.020;23.992;2023-05-23T06:38:21;92663.28;;;23.17;53.63
3250;BME280;1637;42.020;23.992;2023-05-23T06:40:48;92665.88;;;21.43;58.83
3250;BME280;1637;42.020;23.992;2023-05-23T06:43:15;92675.94;;;21.52;58.73
3250;BME280;1637;42.020;23.992;2023-05-23T06:45:44;92672.56;;;22.53;56.90
3250;BME280;1637;42.020;23.992;2023-05-23T06:48:11;92676.53;;;22.32;55.09
3250;BME280;1637;42.020;23.992;2023-05-23T06:50:39;92682.31;;;23.06;54.87
3250;BME280;1637;42.020;23.992;2023-05-23T06:53:06;92669.78;;;20.39;61.26
3250;BME280;1637;42.020;23.992;2023-05-23T06:55:34;92669.81;;;19.92;61.87
3250;BME280;1637;42.020;23.992;2023-05-23T06:58:01;92658.66;;;19.89;65.63
3250;BME280;1637;42.020;23.992;2023-05-23T07:00:28;92667.81;;;22.74;55.09
3250;BME280;1637;42.020;23.992;2023-05-23T07:02:56;92666.34;;;23.24;55.97
3250;BME280;1637;42.020;23.992;2023-05-23T07:05:25;92665.75;;;23.78;51.49
3250;BME280;1637;42.020;23.992;2023-05-23T07:07:52;92668.25;;;23.50;51.71
3250;BME280;1637;42.020;23.992;2023-05-23T07:10:20;92668.47;;;22.63;53.05
3250;BME280;1637;42.020;23.992;2023-05-23T07:12:48;92672.16;;;23.12;51.54
3250;BME280;1637;42.020;23.992;2023-05-23T07:15:15;92663.06;;;23.20;54.47
3250;BME280;1637;42.020;23.992;2023-05-23T07:17:42;92661.66;;;23.62;51.11
3250;BME280;1637;42.020;23.992;2023-05-23T07:20:09;92660.84;;;23.87;51.96
3250;BME280;1637;42.020;23.992;2023-05-23T07:22:36;92650.97;;;23.01;50.90
3250;BME280;1637;42.020;23.992;2023-05-23T07:25:04;92651.88;;;22.92;52.21
3250;BME280;1637;42.020;23.992;2023-05-23T07:27:31;92651.59;;;23.16;49.82
3250;BME280;1637;42.020;23.992;2023-05-23T07:29:59;92650.28;;;23.06;50.07
3250;BME280;1637;42.020;23.992;2023-05-23T07:32:25;92644.28;;;23.34;50.12
3250;BME280;1637;42.020;23.992;2023-05-23T07:34:52;92648.94;;;24.55;48.79
3250;BME280;1637;42.020;23.992;2023-05-23T07:37:19;92654.22;;;24.64;46.92
3250;BME280;1637;42.020;23.992;2023-05-23T07:39:46;92646.63;;;23.46;51.25
3250;BME280;1637;42.020;23.992;2023-05-23T07:42:13;92643.22;;;22.94;52.43
3250;BME280;1637;42.020;23.992;2023-05-23T07:44:40;92644.41;;;22.67;47.76
3250;BME280;1637;42.020;23.992;2023-05-23T07:47:08;92645.88;;;22.88;47.07
3250;BME280;1637;42.020;23.992;2023-05-23T07:49:35;92632.22;;;22.16;47.02
3250;BME280;1637;42.020;23.992;2023-05-23T07:52:02;92646.13;;;22.85;47.10
3250;BME280;1637;42.020;23.992;2023-05-23T07:54:29;92638.03;;;23.27;45.21
3250;BME280;1637;42.020;23.992;2023-05-23T07:56:56;92651.22;;;23.60;46.03
3250;BME280;1637;42.020;23.992;2023-05-23T07:59:23;92646.94;;;23.54;44.83
3250;BME280;1637;42.020;23.992;2023-05-23T08:01:50;92658.81;;;22.68;46.50
3250;BME280;1637;42.020;23.992;2023-05-23T08:04:18;92644.81;;;22.34;47.84
3250;BME280;1637;42.020;23.992;2023-05-23T08:06:45;92642.81;;;21.39;49.10
3250;BME280;1637;42.020;23.992;2023-05-23T08:09:16;92648.44;;;20.91;49.81
3250;BME280;1637;42.020;23.992;2023-05-23T08:11:42;92646.56;;;21.26;49.66
3250;BME280;1637;42.020;23.992;2023-05-23T08:14:09;92636.06;;;20.90;50.19
3250;BME280;1637;42.020;23.992;2023-05-23T08:16:36;92640.84;;;20.66;50.40
3250;BME280;1637;42.020;23.992;2023-05-23T08:19:03;92643.19;;;20.73;50.03
3250;BME280;1637;42.020;23.992;2023-05-23T08:21:31;92637.34;;;20.80;49.86
3250;BME280;1637;42.020;23.992;2023-05-23T08:23:58;92638.69;;;20.84;49.22
3250;BME280;1637;42.020;23.992;2023-05-23T08:26:25;92640.00;;;20.89;50.05
3250;BME280;1637;42.020;23.992;2023-05-23T08:28:54;92638.66;;;20.99;50.70
3250;BME280;1637;42.020;23.992;2023-05-23T08:31:21;92645.06;;;20.67;51.37
3250;BME280;1637;42.020;23.992;2023-05-23T08:33:48;92631.91;;;20.50;51.55
3250;BME280;1637;42.020;23.992;2023-05-23T08:36:15;92632.41;;;20.78;51.99
3250;BME280;1637;42.020;23.992;2023-05-23T08:38:43;92630.91;;;20.92;51.82
3250;BME280;1637;42.020;23.992;2023-05-23T08:41:15;92637.06;;;20.48;52.27
3250;BME280;1637;42.020;23.992;2023-05-23T08:43:44;92633.25;;;20.55;52.86
3250;BME280;1637;42.020;23.992;2023-05-23T08:46:11;92627.50;;;20.53;53.57
3250;BME280;1637;42.020;23.992;2023-05-23T08:48:38;92624.78;;;21.12;52.49
3250;BME280;1637;42.020;23.992;2023-05-23T08:51:08;92630.72;;;21.60;50.28
3250;BME280;1637;42.020;23.992;2023-05-23T08:53:35;92626.75;;;21.26;50.55
3250;BME280;1637;42.020;23.992;2023-05-23T08:56:05;92626.09;;;20.87;51.75
3250;BME280;1637;42.020;23.992;2023-05-23T08:58:33;92627.56;;;20.44;51.95
3250;BME280;1637;42.020;23.992;2023-05-23T09:01:01;92623.06;;;20.41;52.80
3250;BME280;1637;42.020;23.992;2023-05-23T09:03:28;92632.16;;;20.38;52.47
3250;BME280;1637;42.020;23.992;2023-05-23T09:05:55;92613.78;;;21.36;50.45
3250;BME280;1637;42.020;23.992;2023-05-23T09:08:23;92625.16;;;22.30;50.02
3250;BME280;1637;42.020;23.992;2023-05-23T09:10:50;92627.44;;;22.78;47.25
3250;BME280;1637;42.020;23.992;2023-05-23T09:13:19;92621.50;;;22.13;48.40
3250;BME280;1637;42.020;23.992;2023-05-23T09:15:55;92617.22;;;21.71;49.83
3250;BME280;1637;42.020;23.992;2023-05-23T09:18:24;92611.41;;;21.64;50.11
3250;BME280;1637;42.020;23.992;2023-05-23T09:20:51;92592.69;;;21.71;47.54
3250;BME280;1637;42.020;23.992;2023-05-23T09:23:18;92616.97;;;23.02;45.37
3250;BME280;1637;42.020;23.992;2023-05-23T09:25:46;92616.31;;;22.87;44.88
3250;BME280;1637;42.020;23.992;2023-05-23T09:28:13;92627.91;;;23.71;43.78
3250;BME280;1637;42.020;23.992;2023-05-23T09:30:41;92623.56;;;23.90;45.28
3250;BME280;1637;42.020;23.992;2023-05-23T09:33:08;92625.56;;;24.01;44.09
3250;BME280;1637;42.020;23.992;2023-05-23T09:35:43;92623.84;;;24.74;43.25
3250;BME280;1637;42.020;23.992;2023-05-23T09:38:10;92624.75;;;24.37;43.67
3250;BME280;1637;42.020;23.992;2023-05-23T09:40:43;92633.63;;;25.03;42.55
3250;BME280;1637;42.020;23.992;2023-05-23T09:43:10;92627.91;;;25.00;42.92
3250;BME280;1637;42.020;23.992;2023-05-23T09:45:37;92614.53;;;23.78;43.12
3250;BME280;1637;42.020;23.992;2023-05-23T09:48:11;92620.03;;;23.84;43.56
3250;BME280;1637;42.020;23.992;2023-05-23T09:50:38;92605.94;;;23.22;44.64
3250;BME280;1637;42.020;23.992;2023-05-23T09:53:05;92611.41;;;22.65;46.19
3250;BME280;1637;42.020;23.992;2023-05-23T09:55:32;92610.19;;;22.20;45.92
3250;BME280;1637;42.020;23.992;2023-05-23T09:57:59;92604.72;;;22.00;45.87
3250;BME280;1637;42.020;23.992;2023-05-23T10:00:26;92610.13;;;21.59;46.82
3250;BME280;1637;42.020;23.992;2023-05-23T10:02:58;92597.63;;;21.32;48.01
3250;BME280;1637;42.020;23.992;2023-05-23T10:05:34;92609.94;;;21.27;49.31
3250;BME280;1637;42.020;23.992;2023-05-23T10:08:06;92592.63;;;21.31;47.90
3250;BME280;1637;42.020;23.992;2023-05-23T10:10:34;92612.78;;;21.53;46.21
3250;BME280;1637;42.020;23.992;2023-05-23T10:13:16;92606.41;;;21.97;45.79
3250;BME280;1637;42.020;23.992;2023-05-23T10:15:45;92609.41;;;22.91;45.37
3250;BME280;1637;42.020;23.992;2023-05-23T10:18:17;92614.97;;;23.34;44.65
3250;BME280;1637;42.020;23.992;2023-05-23T10:20:48;92617.53;;;22.34;46.09
3250;BME280;1637;42.020;23.992;2023-05-23T10:23:19;92616.19;;;21.69;48.40
3250;BME280;1637;42.020;23.992;2023-05-23T10:25:47;92662.53;;;21.34;48.95
3250;BME280;1637;42.020;23.992;2023-05-23T10:28:14;92615.00;;;21.20;50.04
3250;BME280;1637;42.020;23.992;2023-05-23T10:30:42;92612.00;;;21.33;50.91
3250;BME280;1637;42.020;23.992;2023-05-23T10:33:10;92615.00;;;21.05;52.09
3250;BME280;1637;42.020;23.992;2023-05-23T10:35:49;92614.44;;;21.01;53.06
3250;BME280;1637;42.020;23.992;2023-05-23T10:38:35;92613.34;;;20.64;53.22
3250;BME280;1637;42.020;23.992;2023-05-23T10:41:08;92618.22;;;20.89;54.19
3250;BME280;1637;42.020;23.992;2023-05-23T10:43:43;92618.41;;;20.71;53.09
3250;BME280;1637;42.020;23.992;2023-05-23T10:46:12;92612.97;;;20.71;52.35
3250;BME280;1637;42.020;23.992;2023-05-23T10:48:40;92621.66;;;21.04;51.47
3250;BME280;1637;42.020;23.992;2023-05-23T10:51:10;92621.03;;;21.09;51.02
3250;BME280;1637;42.020;23.992;2023-05-23T10:53:39;92623.75;;;21.24;52.94
3250;BME280;1637;42.020;23.992;2023-05-23T10:56:07;92603.28;;;21.49;51.83
3250;BME280;1637;42.020;23.992;2023-05-23T10:58:35;92618.19;;;21.88;51.81
3250;BME280;1637;42.020;23.992;2023-05-23T11:01:05;92616.06;;;21.57;52.15
3250;BME280;1637;42.020;23.992;2023-05-23T11:03:34;92602.28;;;20.52;52.52
3250;BME280;1637;42.020;23.992;2023-05-23T11:06:02;92661.25;;;20.46;52.64
3250;BME280;1637;42.020;23.992;2023-05-23T11:08:38;92632.34;;;20.34;52.61
3250;BME280;1637;42.020;23.992;2023-05-23T11:11:07;92614.63;;;19.76;52.83
3250;BME280;1637;42.020;23.992;2023-05-23T11:13:56;92645.97;;;19.63;53.84
3250;BME280;1637;42.020;23.992;2023-05-23T11:16:28;92607.94;;;19.30;53.91
3250;BME280;1637;42.020;23.992;2023-05-23T11:19:23;92656.97;;;19.68;53.98
3250;BME280;1637;42.020;23.992;2023-05-23T11:21:55;92660.47;;;19.83;53.57
3250;BME280;1637;42.020;23.992;2023-05-23T11:24:47;92666.97;;;20.10;53.66
3250;BME280;1637;42.020;23.992;2023-05-23T11:27:15;92665.75;;;20.11;53.19
3250;BME280;1637;42.020;23.992;2023-05-23T11:29:45;92675.16;;;19.77;53.97
3250;BME280;1637;42.020;23.992;2023-05-23T11:32:12;92660.88;;;19.67;53.92
3250;BME280;1637;42.020;23.992;2023-05-23T11:34:39;92661.75;;;19.97;54.04
3250;BME280;1637;42.020;23.992;2023-05-23T11:37:06;92663.09;;;20.02;53.94
3250;BME280;1637;42.020;23.992;2023-05-23T11:39:35;92662.88;;;19.90;53.86
3250;BME280;1637;42.020;23.992;2023-05-23T11:42:02;92659.81;;;19.74;53.27
3250;BME280;1637;42.020;23.992;2023-05-23T11:44:30;92664.13;;;19.80;53.71
3250;BME280;1637;42.020;23.992;2023-05-23T11:47:00;92678.63;;;19.77;53.63
3250;BME280;1637;42.020;23.992;2023-05-23T11:49:28;92671.81;;;19.82;53.86
3250;BME280;1637;42.020;23.992;2023-05-23T11:51:57;92682.84;;;19.78;54.26
3250;BME280;1637;42.020;23.992;2023-05-23T11:54:24;92676.28;;;19.94;59.09
3250;BME280;1637;42.020;23.992;2023-05-23T11:56:53;92676.16;;;20.36;58.57
3250;BME280;1637;42.020;23.992;2023-05-23T11:59:20;92671.69;;;20.63;58.45
3250;BME280;1637;42.020;23.992;2023-05-23T12:01:47;92670.22;;;20.76;59.30
3250;BME280;1637;42.020;23.992;2023-05-23T12:04:14;92656.81;;;20.34;61.58
3250;BME280;1637;42.020;23.992;2023-05-23T12:06:41;92655.38;;;20.63;62.79
3250;BME280;1637;42.020;23.992;2023-05-23T12:09:10;92646.28;;;20.95;61.93
3250;BME280;1637;42.020;23.992;2023-05-23T12:11:39;92643.09;;;20.82;60.36
3250;BME280;1637;42.020;23.992;2023-05-23T12:14:07;92643.75;;;21.06;60.44
3250;BME280;1637;42.020;23.992;2023-05-23T12:16:35;92631.66;;;20.78;60.92
3250;BME280;1637;42.020;23.992;2023-05-23T12:19:03;92640.00;;;20.89;58.88
3250;BME280;1637;42.020;23.992;2023-05-23T12:21:41;92633.94;;;21.44;57.01
3250;BME280;1637;42.020;23.992;2023-05-23T12:24:16;92638.47;;;21.32;57.38
3250;BME280;1637;42.020;23.992;2023-05-23T12:26:49;92633.44;;;21.60;57.25
3250;BME280;1637;42.020;23.992;2023-05-23T12:29:27;92635.38;;;21.74;55.90
3250;BME280;1637;42.020;23.992;2023-05-23T12:31:54;92626.09;;;21.86;55.42
3250;BME280;1637;42.020;23.992;2023-05-23T12:34:24;92638.69;;;21.84;53.14
3250;BME280;1637;42.020;23.992;2023-05-23T12:36:54;92631.53;;;21.86;54.09
3250;BME280;1637;42.020;23.992;2023-05-23T12:39:23;92583.66;;;21.80;51.04
3250;BME280;1637;42.020;23.992;2023-05-23T12:41:51;92626.97;;;21.43;49.31
3250;BME280;1637;42.020;23.992;2023-05-23T12:44:21;92622.75;;;21.56;48.69
3250;BME280;1637;42.020;23.992;2023-05-23T12:46:48;92629.72;;;21.43;47.61
3250;BME280;1637;42.020;23.992;2023-05-23T12:49:15;92623.56;;;20.98;48.85
3250;BME280;1637;42.020;23.992;2023-05-23T12:51:42;92616.13;;;21.28;50.18
3250;BME280;1637;42.020;23.992;2023-05-23T12:54:09;92605.09;;;20.73;49.71
3250;BME280;1637;42.020;23.992;2023-05-23T12:56:35;92616.31;;;21.10;48.32
3250;BME280;1637;42.020;23.992;2023-05-23T12:59:02;92606.72;;;21.84;47.42
3250;BME280;1637;42.020;23.992;2023-05-23T13:01:30;92605.19;;;22.18;48.50
3250;BME280;1637;42.020;23.992;2023-05-23T13:03:58;92615.34;;;21.98;46.19
3250;BME280;1637;42.020;23.992;2023-05-23T13:06:26;92611.53;;;22.10;46.76
3250;BME280;1637;42.020;23.992;2023-05-23T13:08:53;92608.09;;;22.35;46.80
3250;BME280;1637;42.020;23.992;2023-05-23T13:11:20;92602.19;;;22.16;46.92
3250;BME280;1637;42.020;23.992;2023-05-23T13:13:47;92597.25;;;22.41;46.83
3250;BME280;1637;42.020;23.992;2023-05-23T13:16:14;92589.78;;;21.95;46.72